createdAt,value
2023-10-06T00:01:14.165Z,2.37
2023-10-06T00:03:41.146Z,2.30
2023-10-06T00:06:08.136Z,2.20
2023-10-06T00:08:35.018Z,2.23
2023-10-06T00:11:01.971Z,1.70
2023-10-06T00:13:31.609Z,2.03
2023-10-06T00:15:59.042Z,1.90
2023-10-06T00:18:26.036Z,1.90
2023-10-06T00:20:53.021Z,2.17
2023-10-06T00:23:20.743Z,1.80
2023-10-06T00:25:47.797Z,2.30
2023-10-06T00:28:15.636Z,1.87
2023-10-06T00:30:45.277Z,2.07
2023-10-06T00:33:12.213Z,1.93
2023-10-06T00:35:39.174Z,1.57
2023-10-06T00:38:06.146Z,1.93
2023-10-06T00:40:33.108Z,2.30
2023-10-06T00:43:00.058Z,1.63
2023-10-06T00:45:27.059Z,2.40
2023-10-06T00:47:56.752Z,2.23
2023-10-06T00:50:24.065Z,2.30
2023-10-06T00:52:51.527Z,2.30
2023-10-06T00:55:20.290Z,2.50
2023-10-06T00:57:47.290Z,2.13
2023-10-06T01:00:16.138Z,2.73
2023-10-06T01:02:44.236Z,1.80
2023-10-06T01:05:14.056Z,2.70
2023-10-06T01:07:41.032Z,1.97
2023-10-06T01:10:08.920Z,2.03
2023-10-06T01:12:35.841Z,2.00
2023-10-06T01:15:02.778Z,2.10
2023-10-06T01:17:29.755Z,1.80
2023-10-06T01:19:56.710Z,2.20
2023-10-06T01:22:26.356Z,1.80
2023-10-06T01:24:53.626Z,1.97
2023-10-06T01:27:21.260Z,1.90
2023-10-06T01:29:48.236Z,2.07
2023-10-06T01:32:15.223Z,1.97
2023-10-06T01:34:42.301Z,1.93
2023-10-06T01:37:10.290Z,2.00
2023-10-06T01:39:40.796Z,2.03
2023-10-06T01:42:08.313Z,2.20
2023-10-06T01:44:35.645Z,2.53
2023-10-06T01:47:03.467Z,2.00
2023-10-06T01:49:30.464Z,2.07
2023-10-06T01:52:08.294Z,2.17
2023-10-06T01:54:36.156Z,2.30
2023-10-06T01:57:06.827Z,1.93
2023-10-06T01:59:34.095Z,1.87
2023-10-06T02:02:01.125Z,1.80
2023-10-06T02:04:28.107Z,1.70
2023-10-06T02:06:55.075Z,1.63
2023-10-06T02:09:21.981Z,1.63
2023-10-06T02:11:49.807Z,2.00
2023-10-06T02:14:19.324Z,1.83
2023-10-06T02:16:46.734Z,1.73
2023-10-06T02:19:14.255Z,2.10
2023-10-06T02:21:42.905Z,1.53
2023-10-06T02:24:10.049Z,1.70
2023-10-06T02:26:37.270Z,1.53
2023-10-06T02:29:04.696Z,1.70
2023-10-06T02:31:34.329Z,1.80
2023-10-06T02:34:01.319Z,1.73
2023-10-06T02:36:28.255Z,1.73
2023-10-06T02:38:55.181Z,1.77
2023-10-06T02:41:22.982Z,1.60
2023-10-06T02:43:51.249Z,1.80
2023-10-06T02:46:19.031Z,1.90
2023-10-06T02:48:49.099Z,1.60
2023-10-06T02:51:23.058Z,1.73
2023-10-06T02:53:50.068Z,1.63
2023-10-06T02:56:20.006Z,1.70
2023-10-06T02:58:46.966Z,1.37
2023-10-06T03:01:14.263Z,1.70
2023-10-06T03:03:41.476Z,1.70
2023-10-06T03:06:11.015Z,1.90
2023-10-06T03:08:37.993Z,1.70
2023-10-06T03:11:04.978Z,1.90
2023-10-06T03:13:31.981Z,1.90
2023-10-06T03:15:59.051Z,1.77
2023-10-06T03:18:26.302Z,1.73
2023-10-06T03:20:53.619Z,1.70
2023-10-06T03:23:23.362Z,1.83
2023-10-06T03:25:50.349Z,2.10
2023-10-06T03:28:17.341Z,2.20
2023-10-06T03:30:44.286Z,2.33
2023-10-06T03:33:11.294Z,1.90
2023-10-06T03:35:38.243Z,1.80
2023-10-06T03:38:05.200Z,2.30
2023-10-06T03:40:34.795Z,1.97
2023-10-06T03:43:01.750Z,1.80
2023-10-06T03:45:28.698Z,2.43
2023-10-06T03:47:56.265Z,2.00
2023-10-06T03:50:23.306Z,1.90
2023-10-06T03:52:50.350Z,1.87
2023-10-06T03:55:17.270Z,1.60
2023-10-06T03:57:46.830Z,1.70
2023-10-06T04:00:14.639Z,1.70
2023-10-06T04:02:41.757Z,1.60
2023-10-06T04:05:09.182Z,1.60
2023-10-06T04:07:36.155Z,1.70
2023-10-06T04:10:03.104Z,1.70
2023-10-06T04:12:30.012Z,1.63
2023-10-06T04:14:59.494Z,2.00
2023-10-06T04:17:26.491Z,1.83
2023-10-06T04:19:53.464Z,1.50
2023-10-06T04:22:20.457Z,1.80
2023-10-06T04:24:47.395Z,1.90
2023-10-06T04:27:14.392Z,1.80
2023-10-06T04:29:41.321Z,1.73
2023-10-06T04:32:10.869Z,1.70
2023-10-06T04:34:37.844Z,1.70
2023-10-06T04:37:04.833Z,1.97
2023-10-06T04:39:31.742Z,1.60
2023-10-06T04:41:58.647Z,1.50
2023-10-06T04:44:25.613Z,2.13
2023-10-06T04:46:52.597Z,1.60
2023-10-06T04:49:22.148Z,1.60
2023-10-06T04:51:49.817Z,1.77
2023-10-06T04:54:16.783Z,1.73
2023-10-06T04:56:43.721Z,2.30
2023-10-06T04:59:10.931Z,2.07
2023-10-06T05:01:38.102Z,1.80
2023-10-06T05:04:05.770Z,1.90
2023-10-06T05:06:38.115Z,2.00
2023-10-06T05:09:05.304Z,2.10
2023-10-06T05:11:32.373Z,1.80
2023-10-06T05:13:59.388Z,2.20
2023-10-06T05:16:26.347Z,1.93
2023-10-06T05:18:53.359Z,1.83
2023-10-06T05:21:20.748Z,2.00
2023-10-06T05:23:50.364Z,2.03
2023-10-06T05:26:17.915Z,1.97
2023-10-06T05:28:45.917Z,2.07
2023-10-06T05:31:13.651Z,1.80
2023-10-06T05:33:40.943Z,1.83
2023-10-06T05:36:11.704Z,1.80
2023-10-06T05:38:38.975Z,2.10
2023-10-06T05:41:08.556Z,2.70
2023-10-06T05:43:35.474Z,3.43
2023-10-06T05:46:02.437Z,3.57
2023-10-06T05:48:29.358Z,4.13
2023-10-06T05:50:56.270Z,4.37
2023-10-06T05:53:23.226Z,4.77
2023-10-06T05:55:50.627Z,4.30
2023-10-06T05:58:20.275Z,4.73
2023-10-06T06:00:47.486Z,4.23
2023-10-06T06:03:14.443Z,3.63
2023-10-06T06:05:41.694Z,3.67
2023-10-06T06:08:11.453Z,3.27
2023-10-06T06:10:38.475Z,3.27
2023-10-06T06:13:05.479Z,2.90
2023-10-06T06:15:35.314Z,2.80
2023-10-06T06:18:02.590Z,3.00
2023-10-06T06:20:29.698Z,2.83
2023-10-06T06:22:56.746Z,2.73
2023-10-06T06:25:24.029Z,2.87
2023-10-06T06:27:51.451Z,2.93
2023-10-06T06:30:18.537Z,3.20
2023-10-06T06:32:49.176Z,2.50
2023-10-06T06:35:17.742Z,2.63
2023-10-06T06:37:44.717Z,2.33
2023-10-06T06:40:12.196Z,2.50
2023-10-06T06:42:39.109Z,1.97
2023-10-06T06:45:07.100Z,2.60
2023-10-06T06:47:34.075Z,2.53
2023-10-06T06:50:03.953Z,2.70
2023-10-06T06:52:30.916Z,3.10
2023-10-06T06:54:57.864Z,3.03
2023-10-06T06:57:24.835Z,3.40
2023-10-06T06:59:51.946Z,4.13
2023-10-06T07:02:18.963Z,4.57
2023-10-06T07:04:46.000Z,3.40
2023-10-06T07:07:15.581Z,3.30
2023-10-06T07:09:42.533Z,3.10
2023-10-06T07:12:09.583Z,3.40
2023-10-06T07:14:36.540Z,3.63
2023-10-06T07:17:03.570Z,4.03
2023-10-06T07:19:30.590Z,4.07
2023-10-06T07:21:57.547Z,3.33
2023-10-06T07:24:27.109Z,4.23
2023-10-06T07:26:54.068Z,3.33
2023-10-06T07:29:21.144Z,3.40
2023-10-06T07:31:48.266Z,3.57
2023-10-06T07:34:15.363Z,4.40
2023-10-06T07:36:42.472Z,3.70
2023-10-06T07:39:09.558Z,3.67
2023-10-06T07:41:39.270Z,4.50
2023-10-06T07:44:06.607Z,3.63
2023-10-06T07:46:33.951Z,3.20
2023-10-06T07:49:01.022Z,2.63
2023-10-06T07:51:28.015Z,3.23
2023-10-06T07:53:54.995Z,2.93
2023-10-06T07:56:21.935Z,4.07
2023-10-06T07:58:51.571Z,4.00
2023-10-06T08:01:20.496Z,2.97
2023-10-06T08:03:47.536Z,3.30
2023-10-06T08:06:14.651Z,3.37
2023-10-06T08:08:41.621Z,3.10
2023-10-06T08:11:09.606Z,3.67
2023-10-06T08:13:37.609Z,3.20
2023-10-06T08:16:07.367Z,3.53
2023-10-06T08:18:34.652Z,3.83
2023-10-06T08:21:01.814Z,3.47
2023-10-06T08:23:29.379Z,3.10
2023-10-06T08:26:00.183Z,3.70
2023-10-06T08:28:28.050Z,3.13
2023-10-06T08:30:55.026Z,2.97
2023-10-06T08:33:24.621Z,3.03
2023-10-06T08:35:56.879Z,3.67
2023-10-06T08:38:23.861Z,3.83
2023-10-06T08:40:55.207Z,3.80
2023-10-06T08:43:26.539Z,3.30
2023-10-06T08:45:54.679Z,3.70
2023-10-06T08:48:25.592Z,3.50
2023-10-06T08:50:56.206Z,3.50
2023-10-06T08:53:26.312Z,3.37
2023-10-06T08:55:53.524Z,3.37
2023-10-06T08:58:20.527Z,3.50
2023-10-06T09:00:47.561Z,3.50
2023-10-06T09:03:14.653Z,3.10
2023-10-06T09:05:45.889Z,3.10
2023-10-06T09:08:13.989Z,3.00
2023-10-06T09:10:42.511Z,3.53
2023-10-06T09:13:11.640Z,3.70
2023-10-06T09:15:39.564Z,3.43
2023-10-06T09:18:27.868Z,3.57
2023-10-06T09:21:10.842Z,3.20
2023-10-06T09:23:39.084Z,3.37
2023-10-06T09:26:07.217Z,3.57
2023-10-06T09:28:34.567Z,3.40
2023-10-06T09:31:03.685Z,3.47
2023-10-06T09:33:43.086Z,3.47
2023-10-06T09:36:14.956Z,3.77
2023-10-06T09:38:45.686Z,3.07
2023-10-06T09:41:12.825Z,3.27
2023-10-06T09:43:41.013Z,3.50
2023-10-06T09:46:11.081Z,3.50
2023-10-06T09:48:39.391Z,3.20
2023-10-06T09:51:07.868Z,3.27
2023-10-06T09:53:39.113Z,3.03
2023-10-06T09:56:06.326Z,2.80
2023-10-06T09:58:33.562Z,2.23
2023-10-06T10:01:00.697Z,2.40
2023-10-06T10:03:28.927Z,1.97
2023-10-06T10:05:58.367Z,2.20
2023-10-06T10:08:26.623Z,2.43
2023-10-06T10:10:58.270Z,2.57
2023-10-06T10:13:51.003Z,2.37
2023-10-06T10:16:47.394Z,2.10
2023-10-06T10:19:19.863Z,2.40
2023-10-06T10:21:47.494Z,2.17
2023-10-06T10:25:05.472Z,2.17
2023-10-06T10:27:15.517Z,2.07
2023-10-06T10:29:42.625Z,1.83
2023-10-06T10:32:14.870Z,2.10
2023-10-06T10:35:07.499Z,2.20
2023-10-06T10:37:51.834Z,2.60
2023-10-06T10:40:21.723Z,2.60
2023-10-06T10:42:55.971Z,1.90
2023-10-06T10:45:31.174Z,2.33
2023-10-06T10:47:58.820Z,2.10
2023-10-06T10:50:28.254Z,1.90
2023-10-06T10:52:55.927Z,2.00
2023-10-06T10:55:25.224Z,1.80
2023-10-06T10:57:54.813Z,1.80
2023-10-06T11:00:21.836Z,1.77
2023-10-06T11:03:06.235Z,1.37
2023-10-06T11:05:33.987Z,1.67
2023-10-06T11:08:04.712Z,1.80
2023-10-06T11:10:32.771Z,1.47
2023-10-06T11:13:18.147Z,1.80
2023-10-06T11:15:45.212Z,1.83
2023-10-06T11:18:12.371Z,1.50
2023-10-06T11:20:39.440Z,1.63
2023-10-06T11:23:07.463Z,1.70
2023-10-06T11:25:35.696Z,1.70
2023-10-06T11:28:04.591Z,2.00
2023-10-06T11:30:35.652Z,1.20
2023-10-06T11:33:04.566Z,1.70
2023-10-06T11:35:32.262Z,2.03
2023-10-06T11:37:59.334Z,2.40
2023-10-06T11:40:26.629Z,1.90
2023-10-06T11:42:53.819Z,1.97
2023-10-06T11:45:25.369Z,1.77
2023-10-06T11:47:55.826Z,1.70
2023-10-06T11:50:25.080Z,1.53
2023-10-06T11:52:52.443Z,2.03
2023-10-06T11:55:27.070Z,2.07
2023-10-06T11:57:54.023Z,2.10
2023-10-06T12:00:38.499Z,1.70
2023-10-06T12:03:09.499Z,1.80
2023-10-06T12:05:36.724Z,1.63
2023-10-06T12:08:04.992Z,1.73
2023-10-06T12:10:32.964Z,1.80
2023-10-06T12:13:00.567Z,1.67
2023-10-06T12:15:30.570Z,2.10
2023-10-06T12:17:57.601Z,2.13
2023-10-06T12:20:27.234Z,1.87
2023-10-06T12:22:54.245Z,2.07
2023-10-06T12:25:21.540Z,1.90
2023-10-06T12:27:48.516Z,2.10
2023-10-06T12:30:16.050Z,2.03
2023-10-06T12:32:43.065Z,2.03
2023-10-06T12:35:11.130Z,2.10
2023-10-06T12:37:40.776Z,2.13
2023-10-06T12:40:09.087Z,2.40
2023-10-06T12:42:36.386Z,2.03
2023-10-06T12:45:03.872Z,2.40
2023-10-06T12:47:30.890Z,2.43
2023-10-06T12:49:57.953Z,2.10
2023-10-06T12:52:24.965Z,1.90
2023-10-06T12:54:55.614Z,2.20
2023-10-06T12:57:22.694Z,2.20
2023-10-06T12:59:49.674Z,2.07
2023-10-06T13:02:17.136Z,2.03
2023-10-06T13:04:44.448Z,2.30
2023-10-06T13:07:11.638Z,2.00
2023-10-06T13:09:38.558Z,2.47
2023-10-06T13:12:08.376Z,2.27
2023-10-06T13:14:35.379Z,2.00
2023-10-06T13:17:02.389Z,1.70
2023-10-06T13:19:29.466Z,2.70
2023-10-06T13:21:56.410Z,2.20
2023-10-06T13:24:23.384Z,2.20
2023-10-06T13:26:50.345Z,2.33
2023-10-06T13:29:19.924Z,2.20
2023-10-06T13:31:46.949Z,2.07
2023-10-06T13:34:13.895Z,2.10
2023-10-06T13:36:40.873Z,2.00
2023-10-06T13:39:07.957Z,2.10
2023-10-06T13:41:34.937Z,2.37
2023-10-06T13:44:01.917Z,1.90
2023-10-06T13:46:31.500Z,2.13
2023-10-06T13:48:58.673Z,2.37
2023-10-06T13:51:25.762Z,2.00
2023-10-06T13:53:52.679Z,2.00
2023-10-06T13:56:19.816Z,2.10
2023-10-06T13:58:46.814Z,1.93
2023-10-06T14:01:13.868Z,1.90
2023-10-06T14:03:43.505Z,2.07
2023-10-06T14:06:10.568Z,1.87
2023-10-06T14:08:37.515Z,2.00
2023-10-06T14:11:04.566Z,1.90
2023-10-06T14:13:31.645Z,2.03
2023-10-06T14:15:58.653Z,1.80
2023-10-06T14:18:26.505Z,2.20
2023-10-06T14:20:56.779Z,1.90
2023-10-06T14:23:24.081Z,1.50
2023-10-06T14:25:51.636Z,1.63
2023-10-06T14:28:18.550Z,1.40
2023-10-06T14:30:45.702Z,1.90
2023-10-06T14:33:13.786Z,1.57
2023-10-06T14:35:41.465Z,1.40
2023-10-06T14:38:11.160Z,1.50
2023-10-06T14:40:38.165Z,1.60
2023-10-06T14:43:05.143Z,1.67
2023-10-06T14:45:32.046Z,1.67
2023-10-06T14:48:00.240Z,1.70
2023-10-06T14:50:29.350Z,1.67
2023-10-06T14:52:56.336Z,1.40
2023-10-06T14:55:25.904Z,1.20
2023-10-06T14:57:52.813Z,1.53
2023-10-06T15:00:19.974Z,1.60
2023-10-06T15:02:47.042Z,1.63
2023-10-06T15:05:14.504Z,1.50
2023-10-06T15:07:41.449Z,2.10
2023-10-06T15:10:09.530Z,1.63
2023-10-06T15:12:39.041Z,2.00
2023-10-06T15:15:07.775Z,2.00
2023-10-06T15:17:34.779Z,1.90
2023-10-06T15:20:01.988Z,1.70
2023-10-06T15:22:28.965Z,2.03
2023-10-06T15:24:55.902Z,1.70
2023-10-06T15:27:22.908Z,1.87
2023-10-06T15:29:52.493Z,2.67
2023-10-06T15:32:19.483Z,2.00
2023-10-06T15:34:46.501Z,1.80
2023-10-06T15:37:13.476Z,2.00
2023-10-06T15:39:40.424Z,2.40
2023-10-06T15:42:07.365Z,2.00
2023-10-06T15:44:34.352Z,1.93
2023-10-06T15:47:04.125Z,2.43
2023-10-06T15:49:31.075Z,2.40
2023-10-06T15:51:58.029Z,2.70
2023-10-06T15:54:25.015Z,2.20
2023-10-06T15:56:52.018Z,2.20
2023-10-06T15:59:19.027Z,2.20
2023-10-06T16:01:46.779Z,2.30
2023-10-06T16:04:16.500Z,2.07
2023-10-06T16:06:43.528Z,2.50
2023-10-06T16:09:11.249Z,2.20
2023-10-06T16:11:41.246Z,2.00
2023-10-06T16:14:08.449Z,2.10
2023-10-06T16:16:35.514Z,2.00
2023-10-06T16:19:02.579Z,2.60
2023-10-06T16:21:32.346Z,2.40
2023-10-06T16:23:59.349Z,2.00
2023-10-06T16:26:26.351Z,2.60
2023-10-06T16:28:53.316Z,2.33
2023-10-06T16:31:20.259Z,2.10
2023-10-06T16:33:47.222Z,2.47
2023-10-06T16:36:14.164Z,2.30
2023-10-06T16:38:43.712Z,2.00
2023-10-06T16:41:10.704Z,2.10
2023-10-06T16:43:37.654Z,2.30
2023-10-06T16:46:05.039Z,2.37
2023-10-06T16:48:33.256Z,2.13
2023-10-06T16:51:00.207Z,2.60
2023-10-06T16:53:27.189Z,2.70
2023-10-06T16:56:00.096Z,2.57
2023-10-06T16:58:27.527Z,2.10
2023-10-06T17:00:54.734Z,2.07
2023-10-06T17:03:21.840Z,2.60
2023-10-06T17:05:48.973Z,2.33
2023-10-06T17:08:16.098Z,2.60
2023-10-06T17:10:43.084Z,2.57
2023-10-06T17:13:12.807Z,2.70
2023-10-06T17:15:39.817Z,2.63
2023-10-06T17:18:07.291Z,3.07
2023-10-06T17:20:36.421Z,3.37
2023-10-06T17:23:03.578Z,4.07
2023-10-06T17:25:31.086Z,3.80
2023-10-06T17:27:58.118Z,4.10
2023-10-06T17:30:27.652Z,4.17
2023-10-06T17:32:54.715Z,4.23
2023-10-06T17:35:22.042Z,3.87
2023-10-06T17:37:49.028Z,4.53
2023-10-06T17:40:15.964Z,4.00
2023-10-06T17:42:43.254Z,4.63
2023-10-06T17:45:10.831Z,4.90
2023-10-06T17:47:40.474Z,5.07
2023-10-06T17:50:08.464Z,6.00
2023-10-06T17:52:35.445Z,6.50
2023-10-06T17:55:02.410Z,5.80
2023-10-06T17:57:29.311Z,6.03
2023-10-06T17:59:56.243Z,5.87
2023-10-06T18:02:23.362Z,5.10
2023-10-06T18:04:53.018Z,4.97
2023-10-06T18:07:20.022Z,4.07
2023-10-06T18:09:46.946Z,4.90
2023-10-06T18:12:24.617Z,4.60
2023-10-06T18:14:52.607Z,4.97
2023-10-06T18:17:19.588Z,4.30
2023-10-06T18:19:46.562Z,4.40
2023-10-06T18:22:16.101Z,4.40
2023-10-06T18:24:43.046Z,4.20
2023-10-06T18:27:10.838Z,4.37
2023-10-06T18:29:38.124Z,4.43
2023-10-06T18:32:05.774Z,4.53
2023-10-06T18:34:32.862Z,4.33
2023-10-06T18:36:59.776Z,4.23
2023-10-06T18:39:29.268Z,4.33
2023-10-06T18:41:56.313Z,4.60
2023-10-06T18:44:23.300Z,4.60
2023-10-06T18:46:50.318Z,4.80
2023-10-06T18:49:18.587Z,4.77
2023-10-06T18:51:46.101Z,4.23
2023-10-06T18:54:13.014Z,4.30
2023-10-06T18:56:42.549Z,5.13
2023-10-06T18:59:09.682Z,4.43
2023-10-06T19:01:36.924Z,3.73
2023-10-06T19:04:04.789Z,4.60
2023-10-06T19:06:31.732Z,4.00
2023-10-06T19:08:58.701Z,3.53
2023-10-06T19:11:25.658Z,3.57
2023-10-06T19:13:55.230Z,3.93
2023-10-06T19:16:22.191Z,4.03
2023-10-06T19:18:49.237Z,3.87
2023-10-06T19:21:16.165Z,4.40
2023-10-06T19:23:43.142Z,3.87
2023-10-06T19:26:10.755Z,3.80
2023-10-06T19:28:38.082Z,3.80
2023-10-06T19:31:08.025Z,4.23
2023-10-06T19:33:35.124Z,3.70
2023-10-06T19:36:03.780Z,3.80
2023-10-06T19:38:30.716Z,3.80
2023-10-06T19:40:57.666Z,4.37
2023-10-06T19:43:24.658Z,4.53
2023-10-06T19:45:51.581Z,3.83
2023-10-06T19:48:21.197Z,3.70
2023-10-06T19:50:48.176Z,4.17
2023-10-06T19:53:15.443Z,3.70
2023-10-06T19:55:42.787Z,3.70
2023-10-06T19:58:10.499Z,4.07
2023-10-06T20:00:39.006Z,3.87
2023-10-06T20:03:06.269Z,3.80
2023-10-06T20:05:38.032Z,3.57
2023-10-06T20:08:05.523Z,3.33
2023-10-06T20:10:32.861Z,3.70
2023-10-06T20:13:00.321Z,3.93
2023-10-06T20:15:29.245Z,4.20
2023-10-06T20:17:56.354Z,4.43
2023-10-06T20:20:23.430Z,4.10
2023-10-06T20:22:53.403Z,3.87
2023-10-06T20:25:20.749Z,3.53
2023-10-06T20:27:48.118Z,3.80
2023-10-06T20:30:15.604Z,3.67
2023-10-06T20:32:42.727Z,4.37
2023-10-06T20:35:09.891Z,5.20
2023-10-06T20:37:36.986Z,3.93
2023-10-06T20:40:08.010Z,4.03
2023-10-06T20:42:34.974Z,3.97
2023-10-06T20:45:01.896Z,3.80
2023-10-06T20:47:28.980Z,3.70
2023-10-06T20:49:56.052Z,3.40
2023-10-06T20:52:23.107Z,3.60
2023-10-06T20:54:50.118Z,3.90
2023-10-06T20:57:19.767Z,4.10
2023-10-06T20:59:46.730Z,4.20
2023-10-06T21:02:13.644Z,4.37
2023-10-06T21:04:40.634Z,4.10
2023-10-06T21:07:07.594Z,4.27
2023-10-06T21:09:34.492Z,4.13
2023-10-06T21:12:01.434Z,3.37
2023-10-06T21:14:31.008Z,3.37
2023-10-06T21:16:58.061Z,3.70
2023-10-06T21:19:25.172Z,3.20
2023-10-06T21:21:52.161Z,3.80
2023-10-06T21:24:19.085Z,3.60
2023-10-06T21:26:46.008Z,3.27
2023-10-06T21:29:12.889Z,3.80
2023-10-06T21:31:42.468Z,3.77
2023-10-06T21:34:09.662Z,3.97
2023-10-06T21:36:37.230Z,3.90
2023-10-06T21:39:04.144Z,3.83
2023-10-06T21:41:31.093Z,3.97
2023-10-06T21:43:58.056Z,3.80
2023-10-06T21:46:25.031Z,3.53
2023-10-06T21:48:54.649Z,3.67
2023-10-06T21:51:21.551Z,3.53
2023-10-06T21:53:48.511Z,3.80
2023-10-06T21:56:15.428Z,3.70
2023-10-06T21:58:42.686Z,3.53
2023-10-06T22:01:09.657Z,3.90
2023-10-06T22:03:36.638Z,3.10
2023-10-06T22:06:06.366Z,3.23
2023-10-06T22:08:33.303Z,3.60
2023-10-06T22:11:00.276Z,4.00
2023-10-06T22:13:27.463Z,3.80
2023-10-06T22:15:54.404Z,3.60
2023-10-06T22:18:21.416Z,3.73
2023-10-06T22:20:48.465Z,4.30
2023-10-06T22:23:18.102Z,3.77
2023-10-06T22:25:45.050Z,4.20
2023-10-06T22:28:11.986Z,4.10
2023-10-06T22:30:39.380Z,4.40
2023-10-06T22:33:06.355Z,4.00
2023-10-06T22:35:33.305Z,4.63
2023-10-06T22:38:00.304Z,3.80
2023-10-06T22:40:29.946Z,4.80
2023-10-06T22:42:57.060Z,5.00
2023-10-06T22:45:24.046Z,4.77
2023-10-06T22:47:51.640Z,4.80
2023-10-06T22:50:19.394Z,4.50
2023-10-06T22:52:47.495Z,4.33
2023-10-06T22:55:14.688Z,4.93
2023-10-06T22:57:44.238Z,4.57
2023-10-06T23:00:12.736Z,4.53
2023-10-06T23:02:40.152Z,4.87
2023-10-06T23:05:07.875Z,5.17
2023-10-06T23:07:34.891Z,5.53
2023-10-06T23:10:01.837Z,5.30
2023-10-06T23:12:28.989Z,5.20
2023-10-06T23:14:58.586Z,4.60
2023-10-06T23:17:25.681Z,4.50
2023-10-06T23:19:52.636Z,4.27
2023-10-06T23:22:19.569Z,4.27
2023-10-06T23:24:46.496Z,4.63
2023-10-06T23:27:13.461Z,4.47
2023-10-06T23:29:40.377Z,4.37
2023-10-06T23:32:10.114Z,4.37
2023-10-06T23:34:37.153Z,4.40
2023-10-06T23:37:04.114Z,4.80
2023-10-06T23:39:31.089Z,4.23
2023-10-06T23:41:58.050Z,4.10
2023-10-06T23:44:25.050Z,3.90
2023-10-06T23:46:51.978Z,4.63
2023-10-06T23:49:21.522Z,4.50
2023-10-06T23:51:48.412Z,4.63
2023-10-06T23:54:15.354Z,4.20
2023-10-06T23:56:42.276Z,4.27
2023-10-06T23:59:09.175Z,4.60
